createdAt,value
2023-05-19T00:03:59.207Z,93.19
2023-05-19T00:09:04.752Z,93.85
2023-05-19T00:14:09.808Z,94.49
2023-05-19T00:19:12.672Z,94.75
2023-05-19T00:24:15.599Z,95.08
2023-05-19T00:29:19.214Z,94.97
2023-05-19T00:34:22.356Z,95.79
2023-05-19T00:39:25.119Z,96.05
2023-05-19T00:44:28.034Z,97.62
2023-05-19T00:49:30.922Z,97.15
2023-05-19T00:54:36.808Z,98.16
2023-05-19T00:59:39.539Z,98.42
2023-05-19T01:04:44.965Z,97.65
2023-05-19T01:09:47.733Z,98.38
2023-05-19T01:14:50.746Z,98.44
2023-05-19T01:20:06.856Z,98.29
2023-05-19T01:25:27.852Z,97.96
2023-05-19T01:30:37.108Z,98.35
2023-05-19T01:35:42.233Z,98.66
2023-05-19T01:40:46.352Z,99.13
2023-05-19T01:45:50.186Z,98.93
2023-05-19T01:50:53.106Z,98.96
2023-05-19T01:55:57.702Z,99.38
2023-05-19T02:01:22.277Z,98.41
2023-05-19T02:06:39.970Z,98.80
2023-05-19T02:11:53.496Z,98.62
2023-05-19T02:16:58.528Z,96.91
2023-05-19T02:22:01.416Z,93.98
2023-05-19T02:27:04.554Z,91.57
2023-05-19T02:32:07.809Z,87.93
2023-05-19T02:37:10.549Z,87.30
2023-05-19T02:42:14.870Z,86.74
2023-05-19T02:47:17.748Z,86.83
2023-05-19T02:52:20.664Z,86.90
2023-05-19T02:57:24.318Z,87.01
2023-05-19T03:02:27.167Z,87.17
2023-05-19T03:07:29.979Z,87.58
2023-05-19T03:12:33.716Z,88.29
2023-05-19T03:17:36.880Z,88.73
2023-05-19T03:22:39.805Z,88.72
2023-05-19T03:27:42.545Z,89.33
2023-05-19T03:32:45.408Z,89.58
2023-05-19T03:37:49.876Z,90.40
2023-05-19T03:42:54.427Z,92.53
2023-05-19T03:47:57.378Z,91.90
2023-05-19T03:53:18.245Z,92.26
2023-05-19T03:58:20.961Z,93.41
2023-05-19T04:03:23.877Z,94.76
2023-05-19T04:08:26.711Z,95.15
2023-05-19T04:13:29.353Z,95.34
2023-05-19T04:18:32.160Z,95.52
2023-05-19T04:23:34.860Z,95.36
2023-05-19T04:28:40.162Z,95.91
2023-05-19T04:33:43.009Z,96.72
2023-05-19T04:38:47.084Z,97.77
2023-05-19T04:43:51.240Z,97.14
2023-05-19T04:48:57.313Z,97.58
2023-05-19T04:54:00.132Z,98.37
2023-05-19T04:59:04.350Z,97.82
2023-05-19T05:04:07.958Z,97.35
2023-05-19T05:09:11.656Z,97.59
2023-05-19T05:14:15.100Z,97.24
2023-05-19T05:19:18.715Z,97.42
2023-05-19T05:24:21.813Z,97.38
2023-05-19T05:29:29.356Z,96.88
2023-05-19T05:34:32.854Z,96.36
2023-05-19T05:39:35.839Z,96.23
2023-05-19T05:44:38.639Z,95.72
2023-05-19T05:49:44.045Z,95.30
2023-05-19T05:54:48.726Z,94.54
2023-05-19T05:59:54.482Z,94.60
2023-05-19T06:04:57.562Z,94.35
2023-05-19T06:10:00.903Z,93.35
2023-05-19T06:15:04.383Z,92.74
2023-05-19T06:20:26.431Z,92.41
2023-05-19T06:25:33.208Z,91.21
2023-05-19T06:30:36.943Z,89.86
2023-05-19T06:35:58.317Z,87.78
2023-05-19T06:41:01.646Z,87.56
2023-05-19T06:46:04.909Z,85.73
2023-05-19T06:51:10.425Z,85.19
2023-05-19T06:56:16.395Z,84.47
2023-05-19T07:01:19.249Z,83.66
2023-05-19T07:06:27.489Z,81.70
2023-05-19T07:11:30.480Z,80.35
2023-05-19T07:16:33.860Z,78.02
2023-05-19T07:21:36.717Z,77.02
2023-05-19T07:26:39.995Z,75.33
2023-05-19T07:31:42.845Z,73.40
2023-05-19T07:36:45.583Z,72.61
2023-05-19T07:41:52.878Z,71.18
2023-05-19T07:46:55.736Z,71.83
2023-05-19T07:51:58.495Z,68.68
2023-05-19T07:57:01.205Z,66.92
2023-05-19T08:02:04.573Z,64.66
2023-05-19T08:07:07.465Z,63.03
2023-05-19T08:12:10.270Z,60.66
2023-05-19T08:17:13.008Z,60.10
2023-05-19T08:22:15.862Z,57.07
2023-05-19T08:27:18.605Z,54.76
2023-05-19T08:32:21.477Z,52.35
2023-05-19T08:37:24.373Z,51.49
2023-05-19T08:42:27.209Z,50.91
2023-05-19T08:47:30.256Z,50.21
2023-05-19T08:52:57.979Z,48.87
2023-05-19T08:58:03.621Z,48.86
2023-05-19T09:08:14.264Z,46.86
2023-05-19T09:13:17.109Z,47.01
2023-05-19T09:18:19.826Z,45.76
2023-05-19T09:23:25.088Z,44.02
2023-05-19T09:28:35.682Z,43.75
2023-05-19T09:33:41.514Z,43.76
2023-05-19T09:38:46.122Z,43.97
2023-05-19T09:43:55.241Z,42.50
2023-05-19T09:48:58.973Z,42.78
2023-05-19T09:54:01.837Z,41.25
2023-05-19T09:59:04.770Z,40.47
2023-05-19T10:04:08.026Z,39.71
2023-05-19T10:09:10.820Z,38.58
2023-05-19T10:14:16.746Z,38.84
2023-05-19T10:19:22.941Z,38.21
2023-05-19T10:24:26.696Z,37.87
2023-05-19T10:29:33.457Z,36.87
2023-05-19T10:35:06.028Z,36.54
2023-05-19T10:40:22.133Z,36.46
2023-05-19T10:45:28.006Z,36.39
2023-05-19T10:50:37.261Z,36.48
2023-05-19T10:55:48.293Z,35.84
2023-05-19T11:01:00.665Z,35.15
2023-05-19T11:06:32.289Z,33.54
2023-05-19T11:11:48.288Z,33.98
2023-05-19T11:16:52.773Z,34.53
2023-05-19T11:21:57.801Z,34.13
2023-05-19T11:27:17.433Z,34.31
2023-05-19T11:32:31.383Z,34.07
2023-05-19T11:37:34.838Z,34.25
2023-05-19T11:42:37.771Z,33.31
2023-05-19T11:47:56.441Z,32.94
2023-05-19T11:53:03.725Z,32.92
2023-05-19T11:58:07.001Z,33.12
2023-05-19T12:03:10.097Z,33.82
2023-05-19T12:08:13.846Z,34.09
2023-05-19T12:13:17.211Z,33.22
2023-05-19T12:18:20.082Z,33.75
2023-05-19T12:23:24.740Z,33.09
2023-05-19T12:28:31.291Z,32.23
2023-05-19T12:33:35.673Z,32.60
2023-05-19T12:38:39.713Z,32.77
2023-05-19T12:43:42.461Z,33.44
2023-05-19T12:48:46.956Z,33.72
2023-05-19T12:53:50.753Z,33.56
2023-05-19T12:58:56.742Z,34.03
2023-05-19T13:04:00.067Z,33.66
2023-05-19T13:09:04.155Z,33.04
2023-05-19T13:14:06.922Z,32.85
2023-05-19T13:19:23.950Z,33.07
2023-05-19T13:24:27.996Z,33.16
2023-05-19T13:29:30.670Z,32.59
2023-05-19T13:34:33.346Z,33.76
2023-05-19T13:39:36.440Z,33.78
2023-05-19T13:44:39.426Z,33.30
2023-05-19T13:49:42.207Z,33.31
2023-05-19T13:54:45.616Z,33.45
2023-05-19T14:00:00.978Z,34.25
2023-05-19T14:05:14.701Z,34.76
2023-05-19T14:10:17.873Z,34.40
2023-05-19T14:15:20.640Z,33.97
2023-05-19T14:20:23.388Z,33.64
2023-05-19T14:25:26.113Z,34.10
2023-05-19T14:30:29.260Z,33.65
2023-05-19T14:35:31.891Z,33.06
2023-05-19T14:40:37.520Z,33.02
2023-05-19T14:45:42.133Z,32.73
2023-05-19T14:50:45.062Z,33.20
2023-05-19T14:55:49.720Z,33.17
2023-05-19T15:00:52.483Z,33.14
2023-05-19T15:05:55.266Z,33.27
2023-05-19T15:10:58.086Z,33.41
2023-05-19T15:16:15.662Z,34.29
2023-05-19T15:21:19.366Z,35.40
2023-05-19T15:26:22.479Z,35.36
2023-05-19T15:31:25.237Z,35.64
2023-05-19T15:36:27.882Z,36.37
2023-05-19T15:41:30.731Z,36.83
2023-05-19T15:46:34.426Z,36.56
2023-05-19T15:51:37.236Z,36.73
2023-05-19T15:56:39.923Z,36.91
2023-05-19T16:01:43.198Z,37.57
2023-05-19T16:06:46.582Z,38.37
2023-05-19T16:11:50.398Z,38.51
2023-05-19T16:16:53.143Z,38.65
2023-05-19T16:21:55.968Z,39.29
2023-05-19T16:26:58.670Z,39.78
2023-05-19T16:32:01.380Z,39.93
2023-05-19T16:37:04.588Z,40.34
2023-05-19T16:42:07.533Z,41.48
2023-05-19T16:47:11.371Z,42.31
2023-05-19T16:52:14.012Z,42.69
2023-05-19T16:57:16.710Z,43.22
2023-05-19T17:02:19.446Z,43.61
2023-05-19T17:07:22.223Z,43.94
2023-05-19T17:12:25.085Z,43.84
2023-05-19T17:17:27.785Z,44.83
2023-05-19T17:22:30.933Z,45.93
2023-05-19T17:27:33.732Z,45.68
2023-05-19T17:32:38.758Z,46.51
2023-05-19T17:37:41.970Z,47.03
2023-05-19T17:42:44.656Z,47.87
2023-05-19T17:47:47.987Z,48.00
2023-05-19T17:52:50.991Z,48.77
2023-05-19T17:57:54.082Z,49.31
2023-05-19T18:02:57.680Z,49.66
2023-05-19T18:08:05.127Z,50.29
2023-05-19T18:13:10.062Z,50.63
2023-05-19T18:18:12.938Z,51.14
2023-05-19T18:23:15.761Z,51.25
2023-05-19T18:28:18.575Z,51.40
2023-05-19T18:33:22.805Z,51.96
2023-05-19T18:38:27.753Z,52.56
2023-05-19T18:43:32.533Z,53.37
2023-05-19T18:48:35.308Z,53.84
2023-05-19T18:53:38.053Z,54.92
2023-05-19T18:58:40.759Z,55.29
2023-05-19T19:03:43.909Z,56.26
2023-05-19T19:08:47.474Z,56.49
2023-05-19T19:13:51.407Z,57.09
2023-05-19T19:18:57.964Z,57.41
2023-05-19T19:24:02.248Z,58.24
2023-05-19T19:29:05.153Z,59.00
2023-05-19T19:34:09.512Z,59.49
2023-05-19T19:39:12.260Z,59.85
2023-05-19T19:44:15.031Z,60.56
2023-05-19T19:49:17.776Z,60.80
2023-05-19T19:54:20.538Z,61.82
2023-05-19T19:59:23.263Z,61.94
2023-05-19T20:04:29.082Z,61.60
2023-05-19T20:09:31.814Z,61.51
2023-05-19T20:14:34.699Z,61.20
2023-05-19T20:19:37.739Z,60.88
2023-05-19T20:24:40.827Z,60.60
2023-05-19T20:29:43.669Z,60.49
2023-05-19T20:34:46.713Z,60.64
2023-05-19T20:39:49.764Z,60.16
2023-05-19T20:44:52.461Z,60.02
2023-05-19T20:49:55.094Z,59.34
2023-05-19T20:54:57.845Z,59.24
2023-05-19T21:00:00.783Z,59.22
2023-05-19T21:05:06.723Z,59.09
2023-05-19T21:10:09.941Z,59.11
2023-05-19T21:15:12.931Z,59.54
2023-05-19T21:20:15.799Z,59.29
2023-05-19T21:25:18.700Z,60.39
2023-05-19T21:30:23.655Z,61.17
2023-05-19T21:35:26.536Z,61.85
2023-05-19T21:40:29.245Z,61.95
2023-05-19T21:45:31.925Z,62.16
2023-05-19T21:50:38.172Z,62.44
2023-05-19T21:55:40.967Z,63.51
2023-05-19T22:00:51.828Z,63.69
2023-05-19T22:05:55.415Z,63.97
2023-05-19T22:10:58.089Z,65.29
2023-05-19T22:16:00.890Z,65.68
2023-05-19T22:21:03.869Z,65.69
2023-05-19T22:26:07.288Z,66.09
2023-05-19T22:31:10.010Z,67.02
2023-05-19T22:36:13.510Z,67.23
2023-05-19T22:41:16.212Z,67.96
2023-05-19T22:46:18.960Z,67.71
2023-05-19T22:51:22.474Z,68.08
2023-05-19T22:56:25.111Z,68.37
2023-05-19T23:01:28.005Z,68.64
2023-05-19T23:06:31.592Z,69.01
2023-05-19T23:11:36.010Z,69.12
2023-05-19T23:16:38.794Z,69.60
2023-05-19T23:21:41.654Z,69.48
2023-05-19T23:26:44.538Z,69.81
2023-05-19T23:31:47.406Z,70.01
2023-05-19T23:36:50.272Z,70.20
2023-05-19T23:41:53.033Z,70.37
2023-05-19T23:46:55.839Z,70.23
2023-05-19T23:51:58.588Z,70.35
2023-05-19T23:57:02.970Z,70.44
